Daniel Field


Codes: KDNL/DNL
Name: Daniel Field
City: Augusta
Country: United States
Elevation: 423 ft.
Website:
Wikipedia:

Photos at Daniel Field


   Photos courtesy of SpottingLog. You can add your own sightings and photos by signing up for a free trial today.



No photos found.

Weather at Daniel Field


Time (UTC)DescriptionTempratureWindCloud coverageVisibilityPressureHumidity
15-Apr-2024 18:00Clear Sky28°C11 mph, SW0%10000m1017hPa41%
15-Apr-2024 21:00Clear Sky28°C13 mph, SW0%10000m1017hPa36%
16-Apr-2024 00:00Clear Sky26°C9 mph, SW1%10000m1016hPa43%
16-Apr-2024 03:00Overcast Clouds22°C9 mph, SW99%10000m1018hPa50%
16-Apr-2024 06:00Overcast Clouds20°C7 mph, W96%10000m1018hPa52%
16-Apr-2024 09:00Overcast Clouds18°C4 mph, W91%10000m1019hPa60%
16-Apr-2024 12:00Broken Clouds18°C2 mph, W62%10000m1020hPa61%
16-Apr-2024 15:00Overcast Clouds26°C4 mph, SW100%10000m1021hPa38%
16-Apr-2024 18:00Overcast Clouds28°C9 mph, SW100%10000m1019hPa33%
16-Apr-2024 21:00Overcast Clouds28°C9 mph, SW100%10000m1018hPa38%
17-Apr-2024 00:00Overcast Clouds24°C4 mph, SW100%10000m1019hPa54%
17-Apr-2024 03:00Overcast Clouds22°C4 mph, SW100%10000m1019hPa60%
17-Apr-2024 06:00Overcast Clouds20°C4 mph, S100%10000m1018hPa67%
17-Apr-2024 09:00Overcast Clouds19°C4 mph, S100%10000m1019hPa69%
17-Apr-2024 12:00Overcast Clouds19°C4 mph, S100%10000m1020hPa68%
17-Apr-2024 15:00Overcast Clouds23°C4 mph, S100%10000m1020hPa50%
17-Apr-2024 18:00Overcast Clouds28°C9 mph, S100%10000m1018hPa42%
17-Apr-2024 21:00Overcast Clouds27°C11 mph, SW99%10000m1016hPa42%
18-Apr-2024 00:00Overcast Clouds24°C9 mph, SW99%10000m1017hPa54%
18-Apr-2024 03:00Overcast Clouds21°C4 mph, SW100%10000m1017hPa64%
18-Apr-2024 06:00Overcast Clouds20°C4 mph, SW100%10000m1017hPa71%
18-Apr-2024 09:00Overcast Clouds19°C4 mph, SW100%10000m1016hPa79%
18-Apr-2024 12:00Overcast Clouds19°C4 mph, W100%10000m1017hPa78%
18-Apr-2024 15:00Clear Sky27°C7 mph, W7%10000m1017hPa50%
18-Apr-2024 18:00Clear Sky31°C9 mph, SW4%10000m1015hPa35%
18-Apr-2024 21:00Clear Sky32°C9 mph, SW0%10000m1013hPa30%
19-Apr-2024 00:00Clear Sky27°C7 mph, SW0%10000m1014hPa47%
19-Apr-2024 03:00Overcast Clouds24°C7 mph, SW99%10000m1015hPa63%
19-Apr-2024 06:00Light Rain22°C7 mph, SW78%10000m1015hPa81%
19-Apr-2024 09:00Overcast Clouds21°C7 mph, W96%10000m1014hPa84%
19-Apr-2024 12:00Light Rain20°C4 mph, W87%10000m1015hPa88%
19-Apr-2024 15:00Broken Clouds27°C9 mph, W56%10000m1016hPa53%
19-Apr-2024 18:00Broken Clouds27°C9 mph, W76%10000m1014hPa52%
19-Apr-2024 21:00Overcast Clouds30°C11 mph, W99%10000m1011hPa38%
20-Apr-2024 00:00Light Rain25°C9 mph, W99%10000m1013hPa62%
20-Apr-2024 03:00Light Rain23°C7 mph, W100%10000m1014hPa70%
20-Apr-2024 06:00Overcast Clouds22°C7 mph, W98%10000m1013hPa78%
20-Apr-2024 09:00Overcast Clouds21°C4 mph, NW100%10000m1013hPa82%
20-Apr-2024 12:00Overcast Clouds21°C4 mph, NW99%10000m1015hPa81%
20-Apr-2024 15:00Overcast Clouds26°C4 mph, NW98%10000m1015hPa58%